Time;durP1;ratioP1;P1;durP2;ratioP2;P2;SDS_P1;SDS_P2;PMS_P1;PMS_P2;Temp;Humidity;BMP_temperature;BMP_pressure;BME280_temperature;BME280_humidity;BME280_pressure;Samples;Min_cycle;Max_cycle;Signal;HPM_P1;HPM_P2
2022/06/10 00:01:07;;;;;;;7.30;3.03;;;13.00;99.90;;;;;;5015672;28;20042;-64
2022/06/10 00:03:35;;;;;;;9.55;2.70;;;;;;;;;;5015880;28;20403;-64
2022/06/10 00:06:04;;;;;;;8.50;3.28;;;13.00;99.90;;;;;;5018970;28;20514;-64
2022/06/10 00:08:36;;;;;;;7.93;2.85;;;12.90;99.90;;;;;;5018962;28;20499;-64
2022/06/10 00:11:04;;;;;;;16.42;3.35;;;12.80;99.90;;;;;;5015859;28;20049;-64
2022/06/10 00:13:32;;;;;;;13.38;4.00;;;12.80;99.90;;;;;;5033235;28;20068;-64
2022/06/10 00:15:58;;;;;;;5.85;3.08;;;;;;;;;;5026878;28;20478;-65
2022/06/10 00:18:27;;;;;;;7.85;3.10;;;12.70;99.90;;;;;;5035480;28;20041;-64
2022/06/10 00:29:50;;;;;;;13.25;4.25;;;;;;;;;;5275826;22;20056;-64
2022/06/10 00:32:17;;;;;;;9.65;3.50;;;;;;;;;;5052936;28;20356;-64
2022/06/10 00:34:43;;;;;;;11.48;3.45;;;12.50;99.90;;;;;;5035179;28;20066;-64
2022/06/10 00:37:09;;;;;;;10.45;3.35;;;;;;;;;;5034734;28;20053;-64
2022/06/10 00:39:35;;;;;;;10.90;3.10;;;12.40;99.90;;;;;;5018510;28;20040;-63
2022/06/10 00:42:03;;;;;;;11.95;3.45;;;12.50;99.90;;;;;;5036688;28;20049;-63
2022/06/10 00:44:35;;;;;;;12.70;3.20;;;12.30;99.90;;;;;;5033892;28;20042;-63
2022/06/10 00:47:25;;;;;;;8.15;3.33;;;12.20;99.90;;;;;;5052397;28;20041;-63
2022/06/10 00:50:02;;;;;;;9.80;3.47;;;12.40;99.90;;;;;;5021574;28;20057;-63
2022/06/10 00:52:33;;;;;;;9.27;2.88;;;12.30;99.90;;;;;;5034234;28;20033;-64
2022/06/10 00:54:59;;;;;;;6.32;3.00;;;;;;;;;;5034427;28;20116;-63
2022/06/10 00:57:31;;;;;;;7.57;3.50;;;12.20;99.90;;;;;;5052309;28;20403;-63
2022/06/10 01:00:17;;;;;;;7.90;3.05;;;12.40;99.90;;;;;;5052567;28;20032;-64
2022/06/10 01:02:44;;;;;;;8.65;3.35;;;12.30;99.90;;;;;;5052266;28;20041;-63
2022/06/10 01:05:21;;;;;;;9.30;3.13;;;12.20;99.90;;;;;;5034377;28;20068;-64
2022/06/10 01:08:01;;;;;;;10.00;3.85;;;12.20;99.90;;;;;;5034435;28;20047;-63
2022/06/10 01:10:29;;;;;;;9.32;3.13;;;12.10;99.90;;;;;;5038134;28;20051;-63
2022/06/10 01:13:07;;;;;;;7.22;3.22;;;12.30;99.90;;;;;;5034562;28;20048;-64
2022/06/10 01:15:47;;;;;;;9.18;3.50;;;12.00;99.90;;;;;;5052113;28;20071;-63
2022/06/10 01:18:21;;;;;;;10.18;3.20;;;12.10;99.90;;;;;;5034441;28;20041;-63
2022/06/10 01:21:16;;;;;;;10.57;3.20;;;12.10;99.90;;;;;;5052198;28;20167;-63
2022/06/10 01:24:04;;;;;;;12.00;3.20;;;12.00;99.90;;;;;;5013155;28;20048;-63
2022/06/10 01:27:48;;;;;;;8.73;3.28;;;11.90;99.90;;;;;;5052391;28;20065;-63
2022/06/10 01:29:52;;;;;;;10.25;3.40;;;11.90;99.90;;;;;;5021780;28;20243;-64
2022/06/10 01:32:26;;;;;;;;;;;11.80;99.90;;;;;;5052157;28;20103;-64
2022/06/10 01:35:06;;;;;;;12.05;3.33;;;11.80;99.90;;;;;;5052313;28;19979;-64
2022/06/10 01:38:03;;;;;;;10.60;3.45;;;11.80;99.90;;;;;;5033984;28;20041;-64
2022/06/10 01:40:40;;;;;;;14.75;3.58;;;11.90;99.90;;;;;;5005496;28;20045;-64
2022/06/10 01:43:28;;;;;;;7.47;3.10;;;11.80;99.90;;;;;;5034316;28;20041;-64
2022/06/10 01:46:12;;;;;;;9.88;3.47;;;11.80;99.90;;;;;;5030199;28;20076;-64
2022/06/10 01:48:47;;;;;;;12.63;3.25;;;11.80;99.90;;;;;;5034159;28;20044;-64
2022/06/10 01:51:30;;;;;;;6.72;3.13;;;11.80;99.90;;;;;;4997943;28;20049;-64
2022/06/10 01:54:03;;;;;;;7.60;3.53;;;11.70;99.90;;;;;;5011891;28;20045;-64
2022/06/10 01:56:34;;;;;;;11.70;3.63;;;11.80;99.90;;;;;;5020338;28;20049;-64
2022/06/10 01:59:11;;;;;;;9.13;4.07;;;11.80;99.90;;;;;;5052133;28;20045;-64
2022/06/10 02:01:42;;;;;;;7.07;2.97;;;11.70;99.90;;;;;;5034022;28;20041;-64
2022/06/10 02:04:15;;;;;;;10.20;3.60;;;11.70;99.90;;;;;;5033929;28;20041;-64
2022/06/10 02:06:50;;;;;;;10.88;4.53;;;11.50;99.90;;;;;;5020032;28;20029;-64
2022/06/10 02:09:19;;;;;;;;;;;11.40;99.90;;;;;;5034434;28;20041;-64
2022/06/10 02:11:50;;;;;;;12.27;3.92;;;11.60;99.90;;;;;;5033995;28;19927;-64
2022/06/10 02:14:21;;;;;;;13.93;3.83;;;11.50;99.90;;;;;;5052037;28;20099;-63
2022/06/10 02:16:49;;;;;;;12.70;3.78;;;11.50;99.90;;;;;;5051505;28;20037;-63
2022/06/10 02:19:30;;;;;;;10.05;3.45;;;11.60;99.90;;;;;;5052033;28;20033;-64
2022/06/10 02:22:12;;;;;;;9.18;3.65;;;11.60;99.90;;;;;;5052297;28;20037;-63
2022/06/10 02:24:42;;;;;;;11.10;3.78;;;11.60;99.90;;;;;;5021188;28;20048;-63
2022/06/10 02:27:15;;;;;;;8.63;3.30;;;11.60;99.90;;;;;;5037358;28;20041;-63
2022/06/10 02:29:54;;;;;;;10.88;3.60;;;11.60;99.90;;;;;;5054961;28;20052;-63
2022/06/10 02:32:20;;;;;;;7.20;3.25;;;11.60;99.90;;;;;;5037181;28;20041;-64
2022/06/10 02:34:46;;;;;;;10.82;3.58;;;11.60;99.90;;;;;;5037321;28;20131;-63
2022/06/10 02:37:22;;;;;;;12.75;3.53;;;11.70;99.90;;;;;;5015676;28;20037;-64
2022/06/10 02:40:12;;;;;;;10.73;3.10;;;11.70;99.90;;;;;;5014009;28;20036;-64
2022/06/10 02:42:42;;;;;;;6.57;3.28;;;11.70;99.90;;;;;;5037391;28;20111;-64
2022/06/10 02:45:37;;;;;;;10.07;3.38;;;11.60;99.90;;;;;;5053491;28;20040;-65
2022/06/10 02:48:20;;;;;;;11.13;4.03;;;11.50;99.90;;;;;;5036866;28;20072;-64
2022/06/10 02:50:46;;;;;;;7.70;3.10;;;11.60;99.90;;;;;;5031974;28;20038;-63
2022/06/10 02:53:13;;;;;;;13.70;4.20;;;11.50;99.90;;;;;;5027855;28;20514;-64
2022/06/10 02:55:39;;;;;;;13.35;3.65;;;11.30;99.90;;;;;;5036769;28;20048;-64
2022/06/10 03:01:22;;;;;;;6.97;3.73;;;11.50;99.90;;;;;;5054793;28;20045;-64
2022/06/10 03:04:00;;;;;;;8.10;3.05;;;11.30;99.90;;;;;;5044911;28;20773;-64
2022/06/10 03:06:31;;;;;;;13.77;4.45;;;11.20;99.90;;;;;;5054164;28;20037;-63
2022/06/10 03:09:08;;;;;;;10.60;3.85;;;11.40;99.90;;;;;;5009665;28;20050;-64
2022/06/10 03:12:18;;;;;;;8.18;3.97;;;11.20;99.90;;;;;;5034912;28;20051;-64
2022/06/10 03:15:18;;;;;;;6.18;3.28;;;11.20;99.90;;;;;;5019762;28;20037;-63
2022/06/10 03:18:33;;;;;;;8.43;3.42;;;11.50;99.90;;;;;;5048733;28;20068;-63
2022/06/10 03:21:11;;;;;;;12.63;4.63;;;11.10;99.90;;;;;;5028392;28;20060;-63
2022/06/10 03:24:24;;;;;;;12.73;3.65;;;11.30;99.90;;;;;;5036246;28;20033;-64
2022/06/10 03:27:08;;;;;;;10.63;3.80;;;11.30;99.90;;;;;;5036193;28;20134;-63
2022/06/10 03:29:47;;;;;;;12.25;3.85;;;11.20;99.90;;;;;;5036556;28;20434;-66
2022/06/10 03:32:35;;;;;;;12.15;4.15;;;11.20;99.90;;;;;;5041170;28;20406;-65
2022/06/10 03:35:15;;;;;;;10.13;4.03;;;11.40;99.90;;;;;;5035954;28;20044;-65
2022/06/10 03:37:41;;;;;;;9.48;3.80;;;11.40;99.90;;;;;;5020772;28;20090;-64
2022/06/10 03:40:14;;;;;;;11.20;4.18;;;11.30;99.90;;;;;;5037280;28;20375;-65
2022/06/10 03:42:47;;;;;;;15.57;4.18;;;11.30;99.90;;;;;;5055210;28;20052;-65
2022/06/10 03:45:16;;;;;;;9.52;3.58;;;11.40;99.90;;;;;;5055227;28;20045;-65
2022/06/10 03:47:43;;;;;;;13.13;3.95;;;;;;;;;;5036688;28;20487;-65
2022/06/10 03:50:12;;;;;;;14.73;5.05;;;11.30;99.90;;;;;;5054724;28;20123;-65
2022/06/10 03:52:41;;;;;;;12.95;4.72;;;11.60;99.90;;;;;;5024375;28;20483;-65
2022/06/10 03:55:09;;;;;;;12.82;5.68;;;11.60;99.90;;;;;;5037378;28;20044;-65
2022/06/10 03:57:34;;;;;;;15.38;3.78;;;11.50;99.90;;;;;;5037044;28;20398;-65
2022/06/10 04:00:01;;;;;;;8.05;3.95;;;;;;;;;;5054381;28;20037;-65
2022/06/10 04:02:26;;;;;;;12.32;4.05;;;11.60;99.90;;;;;;5036440;28;20045;-65
2022/06/10 04:04:52;;;;;;;8.70;3.58;;;;;;;;;;5054956;28;20037;-65
2022/06/10 04:07:19;;;;;;;10.02;3.60;;;11.60;99.90;;;;;;5053738;28;20471;-65
2022/06/10 04:09:46;;;;;;;10.48;4.07;;;11.60;99.90;;;;;;5036095;28;20033;-65
2022/06/10 04:12:12;;;;;;;8.48;3.67;;;;;;;;;;5008836;28;20090;-64
2022/06/10 04:14:38;;;;;;;14.30;4.32;;;11.70;99.90;;;;;;5005232;28;20587;-64
2022/06/10 04:17:04;;;;;;;10.68;3.97;;;11.70;99.90;;;;;;5031587;28;20128;-64
2022/06/10 04:19:30;;;;;;;13.00;4.00;;;;;;;;;;5024785;28;20037;-64
2022/06/10 04:21:56;;;;;;;16.63;3.58;;;;;;;;;;5042555;28;20388;-64
2022/06/10 04:24:22;;;;;;;9.23;3.42;;;;;;;;;;5024799;28;20495;-63
2022/06/10 04:26:48;;;;;;;10.90;3.38;;;;;;;;;;5042536;28;20086;-63
2022/06/10 04:29:15;;;;;;;10.43;3.67;;;12.20;99.90;;;;;;5008230;28;20064;-64
2022/06/10 04:31:41;;;;;;;16.90;3.90;;;12.20;99.90;;;;;;5041693;28;20045;-63
2022/06/10 04:34:08;;;;;;;13.73;3.67;;;12.50;99.90;;;;;;5024258;28;20052;-63
2022/06/10 04:36:34;;;;;;;10.35;3.97;;;;;;;;;;5024684;28;20045;-64
2022/06/10 04:39:00;;;;;;;18.92;3.88;;;;;;;;;;5034096;28;20132;-64
2022/06/10 04:41:26;;;;;;;14.50;4.13;;;;;;;;;;5024105;28;20128;-64
2022/06/10 04:43:52;;;;;;;16.95;3.70;;;;;;;;;;5042399;28;20044;-65
2022/06/10 04:46:36;;;;;;;12.07;3.65;;;13.00;99.90;;;;;;5042501;28;20048;-65
2022/06/10 04:49:03;;;;;;;10.13;3.40;;;;;;;;;;5033639;28;20052;-65
2022/06/10 04:51:29;;;;;;;10.95;3.65;;;;;;;;;;5041466;28;20392;-64
2022/06/10 04:53:55;;;;;;;11.07;4.00;;;;;;;;;;5024636;28;20124;-65
2022/06/10 04:56:21;;;;;;;13.57;3.58;;;13.20;99.90;;;;;;5041731;28;20544;-65
2022/06/10 04:58:47;;;;;;;14.32;3.78;;;13.40;99.90;;;;;;5042412;28;20044;-65
2022/06/10 05:01:13;;;;;;;13.52;3.22;;;;;;;;;;5007301;28;20550;-65
2022/06/10 05:03:38;;;;;;;11.07;3.05;;;13.40;99.90;;;;;;5042160;28;20420;-65
2022/06/10 05:06:04;;;;;;;14.77;3.42;;;13.40;99.90;;;;;;5023199;28;20068;-64
2022/06/10 05:08:30;;;;;;;11.27;3.50;;;;;;;;;;5042591;28;20040;-64
2022/06/10 05:10:56;;;;;;;13.15;3.13;;;;;;;;;;5023205;28;20419;-64
2022/06/10 05:13:22;;;;;;;12.50;4.13;;;;;;;;;;5042408;28;20045;-66
2022/06/10 05:15:49;;;;;;;11.27;3.38;;;;;;;;;;5038263;28;20041;-64
2022/06/10 05:18:16;;;;;;;12.23;4.70;;;13.40;99.90;;;;;;5022352;28;20048;-66
2022/06/10 05:20:44;;;;;;;10.27;3.55;;;13.50;99.90;;;;;;5042905;28;20471;-64
2022/06/10 05:23:12;;;;;;;12.07;3.70;;;13.40;99.90;;;;;;5043042;28;20052;-65
2022/06/10 05:25:38;;;;;;;17.05;3.83;;;13.60;99.90;;;;;;5042917;28;20509;-63
2022/06/10 05:28:04;;;;;;;12.32;3.72;;;13.60;99.90;;;;;;5024676;28;20045;-64
2022/06/10 05:30:31;;;;;;;12.50;3.28;;;13.70;99.90;;;;;;5029036;28;20053;-65
2022/06/10 05:32:59;;;;;;;10.98;3.60;;;13.70;99.90;;;;;;5015993;28;20592;-64
2022/06/10 05:35:25;;;;;;;10.77;4.35;;;;;;;;;;5006926;28;20037;-65
2022/06/10 05:37:51;;;;;;;9.25;3.72;;;;;;;;;;5030710;28;20045;-67
2022/06/10 05:40:17;;;;;;;16.23;4.05;;;;;;;;;;5019505;28;20498;-67
2022/06/10 05:42:43;;;;;;;9.60;4.07;;;;;;;;;;5036918;28;20383;-65
2022/06/10 05:45:14;;;;;;;12.10;3.70;;;13.80;99.90;;;;;;5032501;28;20060;-66
2022/06/10 05:47:41;;;;;;;8.73;3.33;;;13.70;99.90;;;;;;5007719;28;20081;-66
2022/06/10 05:50:17;;;;;;;7.30;3.53;;;13.70;99.90;;;;;;5028011;28;20103;-66
2022/06/10 05:52:43;;;;;;;12.45;4.57;;;;;;;;;;5008545;28;20040;-66
2022/06/10 05:55:10;;;;;;;13.70;4.75;;;13.90;99.90;;;;;;5005968;28;20399;-66
2022/06/10 05:57:37;;;;;;;11.80;3.72;;;13.90;99.90;;;;;;5017960;28;20123;-65
2022/06/10 06:00:05;;;;;;;18.77;4.13;;;13.80;99.90;;;;;;5022296;28;20052;-65
2022/06/10 06:02:31;;;;;;;12.48;4.00;;;14.00;99.90;;;;;;5040964;28;20033;-66
2022/06/10 06:04:58;;;;;;;11.98;5.10;;;14.10;99.90;;;;;;5020882;28;20056;-65
2022/06/10 06:07:27;;;;;;;10.85;3.65;;;13.90;99.90;;;;;;5024542;28;20045;-65
2022/06/10 06:09:53;;;;;;;12.13;3.90;;;14.10;99.90;;;;;;5032708;28;20323;-65
2022/06/10 06:12:19;;;;;;;11.32;4.13;;;14.00;99.90;;;;;;5039767;28;20605;-65
2022/06/10 06:14:45;;;;;;;18.90;5.38;;;;;;;;;;5032160;28;20048;-65
2022/06/10 06:17:13;;;;;;;11.45;3.92;;;14.50;99.90;;;;;;5031671;28;20049;-64
2022/06/10 06:19:39;;;;;;;16.38;3.90;;;;;;;;;;5032645;28;20513;-65
2022/06/10 06:22:05;;;;;;;12.50;4.88;;;;;;;;;;5014695;28;20047;-64
2022/06/10 06:24:31;;;;;;;12.82;5.07;;;14.60;99.90;;;;;;5014774;28;20128;-65
2022/06/10 06:26:57;;;;;;;10.65;5.03;;;14.70;99.90;;;;;;5033142;28;20036;-66
2022/06/10 06:29:23;;;;;;;13.68;4.43;;;14.50;99.90;;;;;;5035331;28;20893;-66
2022/06/10 06:31:53;;;;;;;16.38;5.55;;;14.80;99.90;;;;;;5034938;28;20163;-65
2022/06/10 06:34:20;;;;;;;12.65;5.53;;;14.80;99.90;;;;;;5036727;28;20040;-65
2022/06/10 06:36:48;;;;;;;17.75;5.57;;;14.80;99.90;;;;;;5035115;28;20056;-66
2022/06/10 06:39:15;;;;;;;12.70;5.00;;;14.60;99.90;;;;;;5032456;28;20047;-66
2022/06/10 06:41:41;;;;;;;15.73;5.57;;;;;;;;;;5035593;28;20040;-66
2022/06/10 06:44:07;;;;;;;14.23;5.40;;;15.00;99.90;;;;;;5037194;28;20045;-66
2022/06/10 06:46:34;;;;;;;13.50;5.95;;;15.10;99.90;;;;;;5036705;28;20052;-66
2022/06/10 06:49:02;;;;;;;16.10;5.80;;;15.00;99.90;;;;;;5018358;28;20053;-65
2022/06/10 06:51:28;;;;;;;15.43;5.78;;;;;;;;;;5017955;28;20064;-65
2022/06/10 06:53:54;;;;;;;13.30;5.63;;;;;;;;;;5018459;28;20132;-64
2022/06/10 06:56:20;;;;;;;15.07;6.38;;;15.20;99.90;;;;;;5037878;28;20048;-66
2022/06/10 06:58:45;;;;;;;11.07;5.50;;;15.20;99.90;;;;;;5037093;28;20701;-66
2022/06/10 07:01:11;;;;;;;14.02;5.97;;;;;;;;;;5019045;28;20045;-67
2022/06/10 07:03:38;;;;;;;14.95;6.40;;;;;;;;;;5035593;28;20041;-66
2022/06/10 07:06:04;;;;;;;15.35;6.65;;;;;;;;;;5034405;28;20518;-67
2022/06/10 07:08:33;;;;;;;14.75;6.30;;;;;;;;;;5032032;28;20052;-67
2022/06/10 07:11:00;;;;;;;15.25;5.72;;;15.30;99.90;;;;;;5032987;28;20155;-67
2022/06/10 07:13:26;;;;;;;14.95;6.45;;;15.20;99.90;;;;;;5035942;28;20048;-65
2022/06/10 07:15:52;;;;;;;13.43;6.10;;;15.40;99.90;;;;;;5034041;28;20037;-67
2022/06/10 07:18:18;;;;;;;12.75;6.05;;;;;;;;;;5036711;28;20072;-65
2022/06/10 07:20:44;;;;;;;16.27;6.72;;;;;;;;;;5020599;28;20203;-65
2022/06/10 07:23:10;;;;;;;15.80;5.80;;;15.60;99.90;;;;;;5035631;28;20041;-64
2022/06/10 07:25:36;;;;;;;16.77;7.45;;;15.60;99.90;;;;;;5033951;28;20041;-65
2022/06/10 07:28:02;;;;;;;14.57;6.03;;;;;;;;;;5034127;28;20056;-67
2022/06/10 07:30:32;;;;;;;11.48;5.60;;;15.70;99.90;;;;;;5015935;28;20059;-66
2022/06/10 07:32:58;;;;;;;16.15;6.75;;;15.70;99.90;;;;;;5034203;28;20036;-65
2022/06/10 07:35:25;;;;;;;12.63;4.95;;;15.70;99.90;;;;;;5034561;28;20584;-66
2022/06/10 07:37:51;;;;;;;19.50;5.78;;;15.60;99.90;;;;;;5015045;28;20052;-66
2022/06/10 07:43:05;;;;;;;14.90;5.35;;;15.80;99.90;;;;;;5014904;28;20052;-65
2022/06/10 07:45:32;;;;;;;16.73;5.85;;;15.80;99.90;;;;;;5033988;28;20045;-66
2022/06/10 07:47:58;;;;;;;13.05;5.32;;;16.00;99.90;;;;;;5032093;28;20376;-66
2022/06/10 07:50:24;;;;;;;15.38;5.15;;;;;;;;;;5014275;28;20045;-65
2022/06/10 07:52:50;;;;;;;14.38;4.80;;;;;;;;;;5013879;28;20049;-65
2022/06/10 07:55:19;;;;;;;19.58;4.68;;;16.00;99.90;;;;;;5027779;28;20033;-65
2022/06/10 07:57:45;;;;;;;16.75;5.43;;;16.00;99.90;;;;;;5027679;28;20049;-69
2022/06/10 08:00:12;;;;;;;18.77;5.53;;;16.00;99.90;;;;;;5028742;28;20114;-67
2022/06/10 08:02:39;;;;;;;12.98;5.28;;;16.00;99.90;;;;;;5028356;28;20052;-65
2022/06/10 08:05:07;;;;;;;13.65;5.00;;;16.00;99.90;;;;;;5009858;28;20082;-65
2022/06/10 08:07:33;;;;;;;13.57;5.07;;;16.10;99.90;;;;;;5028509;28;20649;-65
2022/06/10 08:09:59;;;;;;;15.25;5.10;;;16.10;99.90;;;;;;5028578;28;20039;-65
2022/06/10 08:12:25;;;;;;;15.57;4.95;;;16.00;99.90;;;;;;5027670;28;20120;-65
2022/06/10 08:14:50;;;;;;;13.93;5.13;;;16.00;99.90;;;;;;5027835;28;20187;-65
2022/06/10 08:17:16;;;;;;;16.00;5.30;;;16.10;99.90;;;;;;5027368;28;20076;-65
2022/06/10 08:19:42;;;;;;;15.38;5.45;;;16.20;99.90;;;;;;5009845;28;20453;-65
2022/06/10 08:24:53;;;;;;;16.02;5.55;;;16.30;99.90;;;;;;5010906;28;20143;-66
2022/06/10 08:27:18;;;;;;;15.43;5.13;;;16.40;99.90;;;;;;5034439;28;20053;-66
2022/06/10 08:29:44;;;;;;;11.55;4.28;;;16.50;99.90;;;;;;5015565;28;20590;-67
2022/06/10 08:32:10;;;;;;;14.30;4.95;;;16.50;99.90;;;;;;5015053;28;20114;-66
2022/06/10 08:34:36;;;;;;;12.73;3.47;;;16.50;99.90;;;;;;5033712;28;20503;-65
2022/06/10 08:37:03;;;;;;;14.27;4.10;;;16.50;99.90;;;;;;5032129;28;20052;-66
2022/06/10 08:39:28;;;;;;;14.23;3.60;;;16.60;99.90;;;;;;5033908;28;20524;-66
2022/06/10 08:42:16;;;;;;;10.65;3.60;;;16.50;99.90;;;;;;5032676;28;20048;-66
2022/06/10 08:45:07;;;;;;;12.73;3.47;;;16.60;99.90;;;;;;5033124;28;20503;-66
2022/06/10 08:47:35;;;;;;;12.52;3.65;;;16.60;99.90;;;;;;5014324;28;20542;-66
2022/06/10 08:50:12;;;;;;;12.95;4.43;;;16.50;99.90;;;;;;5033622;28;20136;-66
2022/06/10 08:52:57;;;;;;;11.38;4.40;;;16.60;99.90;;;;;;5015047;28;20059;-66
2022/06/10 08:55:42;;;;;;;10.18;4.18;;;16.60;99.90;;;;;;5014788;28;20132;-65
2022/06/10 08:58:17;;;;;;;;;;;16.50;99.90;;;;;;5013629;28;20514;-66
2022/06/10 09:00:44;;;;;;;10.40;3.90;;;;;;;;;;5032275;28;20211;-67
2022/06/10 09:03:38;;;;;;;26.10;5.00;;;16.60;99.90;;;;;;5032096;28;20051;-66
2022/06/10 09:06:09;;;;;;;15.60;4.67;;;16.50;99.90;;;;;;5014561;28;20049;-66
2022/06/10 09:08:41;;;;;;;12.00;4.00;;;16.50;99.90;;;;;;5014069;28;20099;-66
2022/06/10 09:11:17;;;;;;;14.70;4.45;;;16.60;99.90;;;;;;4999290;28;20053;-66
2022/06/10 09:14:01;;;;;;;14.25;4.03;;;16.80;99.90;;;;;;5014769;28;20063;-66
2022/06/10 09:16:41;;;;;;;14.15;3.92;;;16.80;99.90;;;;;;5032594;28;20644;-66
2022/06/10 09:19:26;;;;;;;13.30;4.13;;;16.90;99.90;;;;;;5015262;28;20725;-67
2022/06/10 09:22:23;;;;;;;16.60;4.32;;;16.80;99.90;;;;;;5033499;28;20116;-66
2022/06/10 09:25:02;;;;;;;12.45;4.38;;;16.80;99.90;;;;;;5031593;28;20053;-66
2022/06/10 09:27:44;;;;;;;14.38;4.00;;;16.70;99.90;;;;;;5033922;28;20053;-66
2022/06/10 09:30:12;;;;;;;12.77;4.68;;;16.90;99.90;;;;;;5033222;28;20576;-66
2022/06/10 09:33:01;;;;;;;11.52;4.28;;;17.10;99.90;;;;;;5014805;28;20056;-66
2022/06/10 09:36:00;;;;;;;18.48;5.40;;;16.90;99.90;;;;;;5033789;28;20530;-66
2022/06/10 09:38:35;;;;;;;11.88;5.57;;;17.00;99.90;;;;;;5033392;28;20045;-66
2022/06/10 09:41:28;;;;;;;13.73;4.45;;;17.00;99.90;;;;;;5033689;28;20071;-66
2022/06/10 09:44:19;;;;;;;12.57;5.22;;;16.90;99.90;;;;;;5012350;28;20630;-66
2022/06/10 09:47:00;;;;;;;14.05;4.88;;;17.10;99.90;;;;;;5014198;28;20059;-65
2022/06/10 09:49:57;;;;;;;11.82;5.15;;;17.00;99.90;;;;;;5011669;28;20084;-65
2022/06/10 09:52:47;;;;;;;11.93;4.72;;;17.00;99.90;;;;;;5011672;28;20686;-65
2022/06/10 09:55:24;;;;;;;15.23;4.93;;;17.10;99.90;;;;;;5030321;28;20069;-67
2022/06/10 09:57:56;;;;;;;18.38;5.15;;;16.90;99.90;;;;;;5029166;28;20072;-66
2022/06/10 10:00:37;;;;;;;16.58;5.05;;;17.10;99.90;;;;;;5011095;28;20083;-68
2022/06/10 10:03:44;;;;;;;10.57;4.82;;;17.10;99.90;;;;;;5029105;28;20103;-66
2022/06/10 10:06:19;;;;;;;12.13;4.90;;;17.10;99.90;;;;;;4979178;28;20453;-68
2022/06/10 10:09:09;;;;;;;18.65;5.38;;;17.20;99.90;;;;;;5011584;28;20494;-66
2022/06/10 10:12:05;;;;;;;19.33;4.97;;;17.20;99.90;;;;;;5011737;28;20052;-66
2022/06/10 10:14:45;;;;;;;10.63;4.55;;;17.50;99.90;;;;;;5011019;28;20152;-68
2022/06/10 10:17:48;;;;;;;6.72;4.07;;;17.30;99.90;;;;;;5011215;28;20127;-68
2022/06/10 10:20:29;;;;;;;14.40;5.35;;;17.40;99.90;;;;;;5027199;28;20052;-65
2022/06/10 10:23:14;;;;;;;14.90;6.00;;;17.60;99.90;;;;;;5028245;28;20041;-66
2022/06/10 10:25:42;;;;;;;9.05;4.60;;;17.60;99.90;;;;;;5012340;28;20045;-66
2022/06/10 10:28:18;;;;;;;12.60;4.88;;;17.80;99.90;;;;;;5011372;28;20593;-66
2022/06/10 10:31:08;;;;;;;11.90;4.65;;;17.70;99.90;;;;;;5030884;28;20057;-68
2022/06/10 10:33:33;;;;;;;10.98;4.18;;;17.80;99.90;;;;;;5030058;28;20134;-65
2022/06/10 10:35:59;;;;;;;11.52;3.83;;;18.10;99.90;;;;;;5013704;28;20145;-66
2022/06/10 10:38:41;;;;;;;9.48;4.70;;;18.20;99.90;;;;;;5031960;28;20036;-68
2022/06/10 10:41:20;;;;;;;14.25;3.78;;;18.40;99.90;;;;;;5013641;28;20390;-67
2022/06/10 10:43:50;;;;;;;10.88;4.63;;;18.30;99.90;;;;;;5035377;28;20044;-67
2022/06/10 10:46:31;;;;;;;9.95;4.18;;;18.40;99.90;;;;;;5035897;28;20087;-67
2022/06/10 10:48:57;;;;;;;13.27;5.53;;;18.70;99.90;;;;;;5017960;28;20162;-66
2022/06/10 10:51:40;;;;;;;12.48;3.95;;;18.70;99.90;;;;;;5035107;28;20136;-67
2022/06/10 10:54:22;;;;;;;12.40;5.15;;;18.70;99.90;;;;;;5017368;28;20415;-68
2022/06/10 10:56:49;;;;;;;11.35;5.10;;;18.80;99.90;;;;;;5034691;28;20091;-65
2022/06/10 10:59:32;;;;;;;10.77;5.40;;;19.00;99.90;;;;;;5034911;28;20090;-68
2022/06/10 11:01:58;;;;;;;14.52;5.47;;;18.80;99.90;;;;;;5018252;28;20059;-67
2022/06/10 11:04:28;;;;;;;11.48;5.80;;;19.00;99.90;;;;;;5034251;28;20041;-66
2022/06/10 11:07:14;;;;;;;13.35;5.43;;;18.90;99.90;;;;;;5018291;28;20055;-66
2022/06/10 11:09:46;;;;;;;14.95;5.20;;;19.10;99.90;;;;;;5016269;28;20048;-67
2022/06/10 11:12:18;;;;;;;14.43;5.13;;;19.10;99.90;;;;;;5034617;28;20053;-66
2022/06/10 11:14:48;;;;;;;10.73;4.25;;;19.10;99.90;;;;;;5034482;28;20567;-67
2022/06/10 11:17:20;;;;;;;12.35;5.35;;;19.20;99.90;;;;;;5034424;28;20072;-66
2022/06/10 11:20:00;;;;;;;11.48;4.68;;;19.30;99.90;;;;;;5019727;28;20053;-66
2022/06/10 11:22:29;;;;;;;10.82;4.55;;;19.20;99.90;;;;;;5017288;28;20581;-66
2022/06/10 11:25:01;;;;;;;11.30;4.50;;;19.70;99.90;;;;;;5016672;28;20049;-65
2022/06/10 11:27:35;;;;;;;13.68;3.83;;;19.50;99.90;;;;;;5033424;28;20128;-65
2022/06/10 11:30:04;;;;;;;9.97;3.60;;;19.90;99.90;;;;;;5017351;28;20102;-65
2022/06/10 11:32:54;;;;;;;12.43;4.53;;;19.90;99.90;;;;;;5018073;28;20990;-65
2022/06/10 11:35:32;;;;;;;9.25;3.88;;;19.70;99.90;;;;;;5021622;28;20537;-65
2022/06/10 11:38:15;;;;;;;13.98;3.47;;;19.90;99.90;;;;;;5017050;28;20048;-66
2022/06/10 11:40:50;;;;;;;11.00;3.75;;;19.90;99.90;;;;;;5018795;28;20044;-66
2022/06/10 11:43:38;;;;;;;12.43;3.38;;;19.80;99.90;;;;;;5036888;28;20372;-66
2022/06/10 11:46:16;;;;;;;10.50;3.67;;;19.80;99.90;;;;;;5035001;28;20055;-65
2022/06/10 11:48:54;;;;;;;10.88;3.75;;;19.30;99.90;;;;;;5016076;28;20064;-66
2022/06/10 11:51:40;;;;;;;11.45;4.03;;;19.40;99.90;;;;;;5019683;28;20415;-66
2022/06/10 11:54:18;;;;;;;11.40;3.10;;;19.50;99.90;;;;;;5036796;28;20037;-66
2022/06/10 12:00:27;;;;;;;7.05;3.50;;;19.50;99.90;;;;;;5012102;28;20052;-66
2022/06/10 12:03:12;;;;;;;6.90;3.00;;;19.40;99.90;;;;;;5033696;28;20104;-68
2022/06/10 12:05:56;;;;;;;10.52;3.20;;;19.50;99.90;;;;;;5007447;28;20053;-65
2022/06/10 12:08:41;;;;;;;15.32;3.65;;;19.90;99.90;;;;;;5016457;28;20533;-65
2022/06/10 12:11:44;;;;;;;11.60;3.17;;;19.30;99.90;;;;;;5016571;28;20053;-66
2022/06/10 12:14:31;;;;;;;10.07;4.18;;;19.20;99.90;;;;;;5034347;28;20048;-65
2022/06/10 12:17:11;;;;;;;17.70;4.10;;;19.40;99.90;;;;;;5035630;28;20290;-66
2022/06/10 12:19:45;;;;;;;7.82;3.88;;;19.30;99.90;;;;;;5017362;28;20049;-65
2022/06/10 12:22:11;;;;;;;13.38;5.03;;;19.50;99.90;;;;;;5017742;28;20044;-64
2022/06/10 12:24:38;;;;;;;9.82;4.30;;;19.50;99.90;;;;;;5033146;28;20037;-67
2022/06/10 12:27:07;;;;;;;15.32;4.53;;;19.60;99.90;;;;;;5018057;28;20052;-66
2022/06/10 12:29:54;;;;;;;22.48;5.72;;;19.40;99.90;;;;;;5017837;28;20230;-66
2022/06/10 12:32:30;;;;;;;11.73;4.63;;;19.60;99.90;;;;;;5017184;28;20088;-66
2022/06/10 12:35:02;;;;;;;11.82;3.85;;;19.50;99.90;;;;;;5037403;28;20056;-66
2022/06/10 12:37:30;;;;;;;11.25;4.43;;;19.20;99.90;;;;;;5018191;28;20056;-66
2022/06/10 12:40:06;;;;;;;12.48;4.38;;;19.30;99.90;;;;;;5034896;28;20037;-65
2022/06/10 12:43:00;;;;;;;14.13;4.10;;;19.20;99.90;;;;;;5034010;28;20615;-67
2022/06/10 12:45:44;;;;;;;13.30;4.68;;;19.30;99.90;;;;;;5014602;28;20083;-68
2022/06/10 12:48:20;;;;;;;12.93;4.72;;;19.30;99.90;;;;;;5034026;28;20131;-66
2022/06/10 12:51:11;;;;;;;12.90;5.25;;;19.20;99.90;;;;;;5017126;28;20045;-65
2022/06/10 12:53:57;;;;;;;14.45;4.40;;;19.20;99.90;;;;;;5028366;28;20068;-66
2022/06/10 12:56:33;;;;;;;9.73;4.45;;;19.30;99.90;;;;;;5013194;28;20044;-65
2022/06/10 12:59:07;;;;;;;11.40;5.03;;;19.70;99.90;;;;;;5028310;28;21061;-65
2022/06/10 13:01:33;;;;;;;10.65;4.40;;;19.50;99.90;;;;;;5010572;28;20044;-65
2022/06/10 13:04:35;;;;;;;10.80;4.88;;;19.40;99.90;;;;;;5009685;28;20510;-65
2022/06/10 13:07:21;;;;;;;11.70;5.60;;;19.80;99.90;;;;;;5005994;28;20095;-66
2022/06/10 13:09:47;;;;;;;11.88;5.20;;;19.80;99.90;;;;;;5027085;28;20056;-66
2022/06/10 13:12:12;;;;;;;8.25;4.05;;;19.70;99.90;;;;;;5012308;28;20049;-67
2022/06/10 13:14:44;;;;;;;9.05;4.53;;;19.70;99.90;;;;;;5024029;28;20049;-67
2022/06/10 13:17:18;;;;;;;17.17;6.35;;;19.90;99.90;;;;;;5023498;28;20044;-67
2022/06/10 13:19:58;;;;;;;11.68;5.00;;;20.30;99.90;;;;;;5028054;28;20528;-67
2022/06/10 13:22:36;;;;;;;9.40;3.40;;;20.20;99.90;;;;;;5012681;28;20483;-66
2022/06/10 13:25:02;;;;;;;7.47;3.60;;;20.50;99.90;;;;;;5009222;28;20106;-66
2022/06/10 13:27:27;;;;;;;9.95;3.60;;;20.40;99.90;;;;;;5005837;28;20048;-67
2022/06/10 13:30:00;;;;;;;9.55;3.17;;;20.50;99.90;;;;;;5005053;28;20056;-67
2022/06/10 13:32:30;;;;;;;8.93;2.90;;;19.80;99.90;;;;;;5005875;28;20464;-65
2022/06/10 13:34:59;;;;;;;7.38;3.15;;;20.40;99.90;;;;;;5022544;28;20091;-66
2022/06/10 13:37:29;;;;;;;8.27;2.47;;;20.50;99.90;;;;;;4988364;28;20045;-67
2022/06/10 13:39:57;;;;;;;9.95;2.42;;;20.20;99.90;;;;;;5005581;28;20080;-65
2022/06/10 13:42:33;;;;;;;8.13;2.33;;;20.70;99.90;;;;;;5021767;28;20045;-65
2022/06/10 13:45:12;;;;;;;6.05;1.70;;;20.50;99.90;;;;;;5023668;28;20526;-66
2022/06/10 13:47:38;;;;;;;4.68;1.70;;;20.30;99.90;;;;;;5022686;28;20571;-66
2022/06/10 13:50:19;;;;;;;6.07;1.58;;;20.30;99.90;;;;;;5021510;28;20159;-66